Have a Safe July 4th! 

Flight Track Log - Related Links

Times and Time Zones

All times are in EDT time to prevent confusion due to time zone crossing. See the EJA588P flight status page for this flight to view local times or setup timezone preferences in your user account.

Time Position Orientation Groundspeed Altitude Reporting Facility
EDT Latitude Longitude Course Direction KTS MPH feet Rate Location/Type
Sun 09:17:11 PM 32.8333 -96.8333 90° East 152 175 1,400  Level Dallas / Fort Worth TRACON
Sun 09:17:29 PM 32.8333 -96.8167 90° East 146 168 2,300 2,846 Climbing Dallas / Fort Worth TRACON
Sun 09:18:29 PM 32.8167 -96.7833 121° Southeast 188 216 5,100 2,221 Climbing Dallas / Fort Worth TRACON
Sun 09:20:57 PM 32.8747 -96.5997 69° East 264 304 10,000 1,731 Climbing Fort Worth Center
Sun 09:21:57 PM 32.9178 -96.4853 66° East 324 373 11,100 1,800 Climbing Fort Worth Center
Sun 09:22:57 PM 32.9544 -96.3786 68° East 350 403 13,600 2,150 Climbing Fort Worth Center
Sun 09:23:57 PM 32.9806 -96.2669 74° East 350 403 15,400 2,000 Climbing Fort Worth Center
Sun 09:24:57 PM 32.9961 -96.1503 81° East 350 403 17,600 2,100 Climbing Fort Worth Center
Sun 09:25:57 PM 33.0117 -96.0286 81° East 361 415 19,600 2,050 Climbing Fort Worth Center
Sun 09:26:57 PM 33.0289 -95.9094 80° East 366 421 21,700 1,750 Climbing Fort Worth Center
Sun 09:27:57 PM 33.0461 -95.7803 81° East 373 429 23,100 1,400 Climbing Fort Worth Center
Sun 09:28:57 PM 33.0633 -95.6608 80° East 384 442 24,500 1,650 Climbing Fort Worth Center
Sun 09:29:57 PM 33.0822 -95.5317 80° East 391 450 26,400 1,950 Climbing Fort Worth Center
Sun 09:30:57 PM 33.1181 -95.4094 71° East 391 450 28,400 2,000 Climbing Fort Worth Center
Sun 09:31:57 PM 33.1558 -95.2869 70° East 391 450 30,400 1,900 Climbing Fort Worth Center
Sun 09:32:57 PM 33.1911 -95.1694 70° East 386 444 32,200 1,400 Climbing Fort Worth Center
Sun 09:33:57 PM 33.2286 -95.0467 70° East 381 438 33,200 1,200 Climbing Fort Worth Center
Sun 09:34:57 PM 33.2617 -94.9242 72° East 386 444 34,600 1,400 Climbing Fort Worth Center
Sun 09:35:57 PM 33.3011 -94.8064 68° East 386 444 36,000 1,200 Climbing Fort Worth Center
Sun 09:36:57 PM 33.3361 -94.6858 71° East 386 444 37,000 1,150 Climbing Fort Worth Center
Sun 09:37:57 PM 33.3731 -94.5606 71° East 386 444 38,300 1,250 Climbing Fort Worth Center
Sun 09:38:57 PM 33.4097 -94.4397 70° East 392 451 39,500 1,100 Climbing Fort Worth Center
Sun 09:39:57 PM 33.4467 -94.3167 70° East 392 451 40,500 750 Climbing Fort Worth Center
Sun 09:40:57 PM 33.4811 -94.1958 71° East 392 451 41,000 250 Climbing Fort Worth Center
Sun 09:41:57 PM 33.5275 -94.0569 68° East 392 451 41,000  Level Fort Worth Center
Sun 09:42:57 PM 33.5761 -93.9256 66° East 403 464 41,000  Level Fort Worth Center
Sun 09:43:57 PM 33.6267 -93.7939 65° Northeast 416 479 41,000  Level Fort Worth Center
Sun 09:46:57 PM 33.7767 -93.4011 65° Northeast 421 484 41,000  Level Memphis Center
Sun 09:47:57 PM 33.8281 -93.2678 65° Northeast 421 484 41,000  Level Memphis Center
Sun 09:48:57 PM 33.8769 -93.1369 66° East 426 490 41,000  Level Memphis Center
Sun 09:49:57 PM 33.9278 -93.0058 65° Northeast 426 490 41,000  Level Memphis Center
Sun 09:50:57 PM 33.9783 -92.8697 66° East 431 496 41,000  Level Memphis Center
Sun 09:51:57 PM 34.0292 -92.7381 65° Northeast 431 496 41,000  Level Memphis Center
Sun 09:52:57 PM 34.0753 -92.6017 68° East 431 496 41,000  Level Memphis Center
Sun 09:53:57 PM 34.1258 -92.4675 65° Northeast 431 496 41,000  Level Memphis Center
Sun 09:54:57 PM 34.1739 -92.3331 67° East 431 496 41,000  Level Memphis Center
Sun 09:55:57 PM 34.2239 -92.2036 65° Northeast 431 496 41,000  Level Memphis Center
Sun 09:56:57 PM 34.2739 -92.0664 66° East 431 496 41,000  Level Memphis Center
Sun 09:57:57 PM 34.3172 -91.9464 66° East 432 497 41,000  Level Memphis Center
Sun 09:58:57 PM 34.3667 -91.8114 66° East 432 497 41,000  Level Memphis Center
Sun 09:59:57 PM 34.4161 -91.6839 65° Northeast 432 497 41,000  Level Memphis Center
Sun 10:00:57 PM 34.4675 -91.5486 65° Northeast 427 491 41,000  Level Memphis Center
Sun 10:01:57 PM 34.5189 -91.4008 67° East 427 491 41,000  Level Memphis Center
Sun 10:02:57 PM 34.5658 -91.2675 67° East 432 497 41,000  Level Memphis Center
Sun 10:03:57 PM 34.6147 -91.1319 66° East 432 497 41,000  Level Memphis Center
Sun 10:04:57 PM 34.6614 -90.9983 67° East 432 497 41,000  Level Memphis Center
Sun 10:05:57 PM 34.7081 -90.8650 67° East 432 497 41,000  Level Memphis Center
Sun 10:06:57 PM 34.7586 -90.7286 66° East 432 497 41,000  Level Memphis Center
Sun 10:07:57 PM 34.8069 -90.5897 67° East 437 503 41,000  Level Memphis Center
Sun 10:08:57 PM 34.8531 -90.4558 67° East 432 497 41,000  Level Memphis Center
Sun 10:09:57 PM 34.8967 -90.3344 66° East 432 497 41,000  Level Memphis Center
Sun 10:10:57 PM 34.9447 -90.2000 66° East 432 497 41,000  Level Memphis Center
Sun 10:11:57 PM 34.9925 -90.0631 67° East 432 497 41,000  Level Memphis Center
Sun 10:12:57 PM 35.0419 -89.9258 66° East 437 503 41,000  Level Memphis Center
Sun 10:13:57 PM 35.0978 -89.7708 66° East 442 509 41,000  Level Memphis Center
Sun 10:14:57 PM 35.1450 -89.6308 68° East 441 507 41,000  Level Memphis Center
Sun 10:15:57 PM 35.1942 -89.4906 67° East 441 507 41,000  Level Memphis Center
Sun 10:16:57 PM 35.2411 -89.3528 67° East 441 507 41,000  Level Memphis Center
Sun 10:17:57 PM 35.2878 -89.2175 67° East 435 501 41,000  Level Memphis Center
Sun 10:18:57 PM 35.3344 -89.0819 67° East 435 501 41,000  Level Memphis Center
Sun 10:19:57 PM 35.3769 -88.9617 67° East 435 501 41,000  Level Memphis Center
Sun 10:20:56 PM 35.4256 -88.8258 66° East 435 501 41,000  Level Memphis Center
Sun 10:21:57 PM 35.4675 -88.6925 69° East 430 495 41,000  Level Memphis Center
Sun 10:22:57 PM 35.5158 -88.5561 66° East 425 489 41,000  Level Memphis Center
Sun 10:23:57 PM 35.5594 -88.4225 68° East 420 483 41,000  Level Memphis Center
Sun 10:24:57 PM 35.6075 -88.2861 67° East 420 483 41,000  Level Memphis Center
Sun 10:25:57 PM 35.6531 -88.1522 67° East 420 483 41,000  Level Memphis Center
Sun 10:26:57 PM 35.7008 -88.0206 66° East 415 478 41,000  Level Memphis Center
Sun 10:27:57 PM 35.7478 -87.8733 69° East 426 490 41,000  Level Memphis Center
Sun 10:28:57 PM 35.7950 -87.7361 67° East 431 496 41,000  Level Memphis Center
Sun 10:29:57 PM 35.8400 -87.5992 68° East 431 496 41,000  Level Memphis Center
Sun 10:30:57 PM 35.8850 -87.4592 68° East 436 502 41,000  Level Memphis Center
Sun 10:31:57 PM 35.9275 -87.3244 69° East 431 496 41,000  Level Memphis Center
Sun 10:32:57 PM 35.9742 -87.1869 67° East 431 496 41,000  Level Memphis Center
Sun 10:33:57 PM 36.0186 -87.0492 68° East 431 496 41,000  Level Memphis Center
Sun 10:34:57 PM 36.0606 -86.9114 69° East 431 496 41,000  Level Memphis Center
Sun 10:35:57 PM 36.1047 -86.7708 69° East 431 496 41,000  Level Memphis Center
Sun 10:36:57 PM 36.1569 -86.6347 65° Northeast 436 502 41,000  Level Memphis Center
Sun 10:37:57 PM 36.2178 -86.5086 59° Northeast 436 502 41,000  Level Memphis Center
Sun 10:38:57 PM 36.2806 -86.3844 58° Northeast 428 493 41,000  Level Memphis Center
Sun 10:39:57 PM 36.3431 -86.2553 59° Northeast 422 486 41,000  Level Memphis Center
Sun 10:40:57 PM 36.4033 -86.1258 60° Northeast 422 486 41,000  Level Memphis Center
Sun 10:42:46 PM 36.5069 -85.9133 59° Northeast 437 503 41,000  Level Indianapolis Center
Sun 10:43:47 PM 36.5783 -85.7650 59° Northeast 429 494 41,000  Level Indianapolis Center
Sun 10:44:48 PM 36.6381 -85.6347 60° Northeast 431 496 41,000  Level Indianapolis Center
Sun 10:45:49 PM 36.6989 -85.5061 59° Northeast 428 493 41,000  Level Indianapolis Center
Sun 10:46:50 PM 36.7581 -85.3767 60° Northeast 426 490 41,000  Level Indianapolis Center
Sun 10:47:51 PM 36.8192 -85.2472 59° Northeast 430 495 41,000  Level Indianapolis Center
Sun 10:48:52 PM 36.8789 -85.1172 60° Northeast 430 495 41,000  Level Indianapolis Center
Sun 10:49:53 PM 36.9394 -84.9864 60° Northeast 433 498 41,000  Level Indianapolis Center
Sun 10:50:54 PM 37.0000 -84.8544 60° Northeast 437 503 41,000  Level Indianapolis Center
Sun 10:51:55 PM 37.0600 -84.7258 60° Northeast 438 504 41,000  Level Indianapolis Center
Sun 10:52:56 PM 37.1206 -84.5914 61° Northeast 443 510 41,000  Level Indianapolis Center
Sun 10:53:57 PM 37.1911 -84.4331 61° Northeast 445 512 41,000  Level Indianapolis Center
Sun 10:54:58 PM 37.2539 -84.2969 60° Northeast 450 518 41,000  Level Indianapolis Center
Sun 10:55:59 PM 37.3139 -84.1611 61° Northeast 446 513 41,000  Level Indianapolis Center
Sun 10:57:00 PM 37.3750 -84.0247 61° Northeast 446 513 41,000  Level Indianapolis Center
Sun 10:58:01 PM 37.4383 -83.8869 60° Northeast 451 519 41,000  Level Indianapolis Center
Sun 10:59:01 PM 37.4972 -83.7531 61° Northeast 441 507 41,000  Level Indianapolis Center
Sun 11:00:02 PM 37.5583 -83.6158 61° Northeast 449 517 41,000  Level Indianapolis Center
Sun 11:01:03 PM 37.6192 -83.4789 61° Northeast 453 521 41,000  Level Indianapolis Center
Sun 11:02:04 PM 37.6786 -83.3408 61° Northeast 449 517 41,000  Level Indianapolis Center
Sun 11:03:05 PM 37.7389 -83.2047 61° Northeast 443 510 41,000  Level Indianapolis Center
Sun 11:04:06 PM 37.8003 -83.0603 62° Northeast 459 528 41,000  Level Indianapolis Center
Sun 11:05:07 PM 37.8594 -82.9258 61° Northeast 438 504 41,000  Level Indianapolis Center
Sun 11:06:08 PM 37.9178 -82.7881 62° Northeast 455 524 41,000  Level Indianapolis Center
Sun 11:07:09 PM 37.9772 -82.6506 61° Northeast 443 510 41,000  Level Indianapolis Center
Sun 11:08:10 PM 38.0369 -82.5103 62° Northeast 447 514 41,000  Level Indianapolis Center
Sun 11:09:10 PM 38.0653 -82.3564 77° East 446 513 41,000  Level Indianapolis Center
Sun 11:10:11 PM 38.0900 -82.2008 79° East 447 514 41,000  Level Indianapolis Center
Sun 11:11:12 PM 38.1125 -82.0553 79° East 439 505 41,000  Level Indianapolis Center
Sun 11:12:13 PM 38.1361 -81.9067 79° East 433 498 41,000  Level Indianapolis Center
Sun 11:13:14 PM 38.1633 -81.7247 79° East 439 505 41,000  Level Indianapolis Center
Sun 11:14:15 PM 38.1844 -81.5736 80° East 438 504 41,000  Level Indianapolis Center
Sun 11:15:16 PM 38.2072 -81.4231 79° East 438 504 41,000 -148 Level Indianapolis Center
Sun 11:16:17 PM 38.2294 -81.2733 79° East 435 501 40,700 -885 Descending Indianapolis Center
Sun 11:17:18 PM 38.2519 -81.1222 79° East 438 504 39,200 -1,364 Descending Indianapolis Center
Sun 11:18:07 PM 38.2678 -81.0108 80° East 426 490 38,200 -1,200 Descending Washington Center
Sun 11:19:08 PM 38.2939 -80.8433 79° East 426 490 37,000 -595 Descending Washington Center
Sun 11:20:08 PM 38.3131 -80.6939 81° East 426 490 37,000  Level Washington Center
Sun 11:21:09 PM 38.3361 -80.5419 79° East 426 490 37,000  Level Washington Center
Sun 11:22:08 PM 38.3567 -80.3897 80° East 426 490 37,000  Level Washington Center
Sun 11:23:07 PM 38.3747 -80.2506 81° East 431 496 37,000 -555 Level Washington Center
Sun 11:24:07 PM 38.3972 -80.1036 79° East 431 496 35,900 -1,623 Descending Washington Center
Sun 11:25:09 PM 38.4172 -79.9564 80° East 425 489 33,700 -2,164 Descending Washington Center
Sun 11:26:09 PM 38.4392 -79.8092 79° East 425 489 31,500 -2,441 Descending Washington Center
Sun 11:27:07 PM 38.4758 -79.6494 74° East 425 489 28,900 -2,500 Descending Washington Center
Sun 11:28:09 PM 38.5097 -79.5081 73° East 430 495 26,500 -2,508 Descending Washington Center
Sun 11:29:09 PM 38.5394 -79.3636 75° East 425 489 23,800 -2,390 Descending Washington Center
Sun 11:30:07 PM 38.5603 -79.2267 79° East 410 472 21,800 -2,118 Descending Washington Center
Sun 11:31:08 PM 38.5831 -79.0894 78° East 404 465 19,600 -1,918 Descending Washington Center
Sun 11:32:09 PM 38.6036 -78.9603 78° East 389 448 17,900 -1,700 Descending Washington Center
Sun 11:33:08 PM 38.6258 -78.8364 77° East 369 425 16,200 -1,650 Descending Washington Center
Sun 11:34:09 PM 38.6517 -78.7206 74° East 351 404 14,600 -1,462 Descending Washington Center
Sun 11:35:07 PM 38.6797 -78.6047 73° East 341 392 13,300 -1,311 Descending Washington Center
Sun 11:36:08 PM 38.7197 -78.5025 63° Northeast 330 380 12,000 -1,150 Descending Washington Center
Sun 11:37:07 PM 38.7617 -78.4083 60° Northeast 311 358 11,000 -950 Descending Washington Center
Sun 11:38:08 PM 38.8156 -78.3306 48° Northeast 301 346 10,100 -500 Descending Washington Center
Sun 11:39:07 PM 38.8711 -78.2658 42° Northeast 295 339 10,000 -101 Descending Washington Center
Sun 11:40:07 PM 38.9394 -78.1964 38° Northeast 295 339 9,900 -590 Descending Washington Center
Sun 11:41:09 PM 39.0056 -78.1292 38° Northeast 300 345 8,800 -1,131 Descending Washington Center
Sun 11:42:09 PM 39.0611 -78.0564 45° Northeast 300 345 7,600 -1,181 Descending Washington Center
Sun 11:44:17 PM 39.1500 -77.8667 59° Northeast 299 344 5,100 -1,053 Descending Potomac TRACON
Sun 11:45:17 PM 39.1500 -77.7833 90° East 263 303 4,300 -800 Descending Potomac TRACON
Sun 11:46:17 PM 39.1667 -77.6833 78° East 258 297 3,500 -500 Descending Potomac TRACON
Sun 11:47:17 PM 39.1500 -77.6000 104° East 260 299 3,300 -250 Descending Potomac TRACON
Sun 11:48:17 PM 39.1333 -77.5167 104° East 254 292 3,000 -350 Descending Potomac TRACON
Sun 11:49:17 PM 39.1167 -77.4500 108° East 237 273 2,600 -250 Descending Potomac TRACON
Sun 11:50:17 PM 39.0667 -77.4333 165° South 186 214 2,500 -450 Descending Potomac TRACON
Sun 11:51:17 PM 39.0333 -77.4333 180° South 130 150 1,700 -667 Descending Potomac TRACON
Sun 11:52:05 PM 39.0000 -77.4333 180° South 111 128 1,300 -556 Descending Potomac TRACON
Sun 11:53:05 PM 38.9667 -77.4333 180° South 115 132 700 -600 Descending Potomac TRACON

Login

Don't have an account? Register now (free) for customized features, flight alerts, and more!